Time;durP1;ratioP1;P1;durP2;ratioP2;P2;SDS_P1;SDS_P2;PMS_P1;PMS_P2;Temp;Humidity;BMP_temperature;BMP_pressure;BME280_temperature;BME280_humidity;BME280_pressure;Samples;Min_cycle;Max_cycle;Signal;HPM_P1;HPM_P2
2023/05/05 02:02:18;;;;;;;10.05;4.37;;;;;;;;;;4381056;27;20083;-75
2023/05/05 02:04:45;;;;;;;8.10;4.28;;;;;;;;;;4306175;33;20048;-74
2023/05/05 02:07:11;;;;;;;7.07;3.53;;;;;;;;;;4297890;33;20057;-80
2023/05/05 02:09:39;;;;;;;9.70;4.18;;;;;;;;;;4300888;33;20045;-73
2023/05/05 02:12:06;;;;;;;8.20;4.07;;;;;;;;;;4280103;33;20053;-74
2023/05/05 02:14:33;;;;;;;6.47;4.20;;;;;;;;;;4279302;33;20481;-73
2023/05/05 02:17:00;;;;;;;11.05;4.22;;;;;;;;;;4280394;33;20111;-75
2023/05/05 02:19:28;;;;;;;7.55;3.92;;;;;;;;;;4279537;33;20053;-77
2023/05/05 02:21:54;;;;;;;9.35;3.83;;;;;;;;;;4270877;33;20042;-74
2023/05/05 02:24:20;;;;;;;6.35;4.25;;;;;;;;;;4266232;33;20444;-73
2023/05/05 02:26:48;;;;;;;11.00;4.35;;;;;;;;;;4266281;33;20079;-74
2023/05/05 02:29:33;;;;;;;6.07;3.65;;;;;;;;;;4265281;33;20392;-76
2023/05/05 02:32:01;;;;;;;10.30;4.35;;;;;;;;;;4256329;33;20045;-74
2023/05/05 02:34:29;;;;;;;5.28;4.00;;;;;;;;;;4266614;33;20103;-73
2023/05/05 02:36:57;;;;;;;9.30;4.47;;;;;;;;;;4256873;33;20041;-76
2023/05/05 02:39:27;;;;;;;6.50;4.47;;;;;;;;;;4242865;33;20518;-73
2023/05/05 02:41:54;;;;;;;8.57;3.97;;;;;;;;;;4237574;33;20056;-74
2023/05/05 02:44:22;;;;;;;6.75;4.32;;;;;;;;;;4265736;33;20049;-75
2023/05/05 02:46:48;;;;;;;9.02;4.53;;;;;;;;;;4265244;33;20509;-76
2023/05/05 02:49:15;;;;;;;6.40;4.45;;;;;;;;;;4263649;33;20046;-74
2023/05/05 02:51:41;;;;;;;9.90;5.35;;;;;;;;;;4272047;33;20161;-75
2023/05/05 02:54:08;;;;;;;6.97;4.75;;;;;;;;;;4294216;33;20414;-75
2023/05/05 02:56:34;;;;;;;7.65;4.53;;;;;;;;;;4285442;33;20045;-73
2023/05/05 02:59:08;;;;;;;8.13;4.05;;;;;;;;;;4279191;33;20072;-85
2023/05/05 03:01:45;;;;;;;18.62;4.82;;;;;;;;;;4279269;33;20096;-73
2023/05/05 03:04:16;;;;;;;7.93;4.22;;;;;;;;;;4286248;33;20123;-73
2023/05/05 03:06:47;;;;;;;10.15;4.65;;;;;;;;;;4292457;33;20152;-85
2023/05/05 03:09:16;;;;;;;8.65;5.18;;;;;;;;;;4279397;33;20071;-74
2023/05/05 03:11:51;;;;;;;16.08;4.93;;;;;;;;;;4280111;33;20084;-78
2023/05/05 03:14:19;;;;;;;6.85;3.97;;;;;;;;;;4294865;33;20159;-73
2023/05/05 03:16:47;;;;;;;12.90;4.90;;;;;;;;;;4293911;33;20037;-82
2023/05/05 03:19:16;;;;;;;8.90;4.18;;;;;;;;;;4292866;33;20390;-72
2023/05/05 03:21:42;;;;;;;12.45;4.95;;;;;;;;;;4293518;33;20037;-73
2023/05/05 03:24:13;;;;;;;10.88;4.30;;;;;;;;;;4292944;33;20057;-73
2023/05/05 03:26:39;;;;;;;8.82;4.62;;;;;;;;;;4293145;33;20076;-81
2023/05/05 03:29:06;;;;;;;14.20;4.62;;;;;;;;;;4281551;33;20045;-73
2023/05/05 03:31:32;;;;;;;7.32;4.45;;;;;;;;;;4265479;33;20489;-74
2023/05/05 03:33:59;;;;;;;13.70;5.18;;;;;;;;;;4265547;33;20089;-74
2023/05/05 03:36:26;;;;;;;10.60;4.70;;;;;;;;;;4263627;33;20481;-73
2023/05/05 03:38:53;;;;;;;8.68;5.07;;;;;;;;;;4263338;33;20067;-83
2023/05/05 03:41:20;;;;;;;17.80;4.72;;;;;;;;;;4264360;33;20230;-75
2023/05/05 03:43:47;;;;;;;10.52;4.90;;;;;;;;;;4273970;33;20057;-73
2023/05/05 03:46:14;;;;;;;12.45;4.85;;;;;;;;;;4279557;33;20045;-73
2023/05/05 03:48:42;;;;;;;10.18;5.28;;;;;;;;;;4263568;33;20456;-75
2023/05/05 03:51:08;;;;;;;6.90;4.43;;;;;;;;;;4263713;33;20491;-84
2023/05/05 03:53:35;;;;;;;10.63;4.47;;;;;;;;;;4260710;33;20042;-74
2023/05/05 03:56:01;;;;;;;11.70;4.80;;;;;;;;;;4260602;33;20120;-74
2023/05/05 03:58:28;;;;;;;11.57;5.10;;;;;;;;;;4252641;33;20075;-73
2023/05/05 04:00:54;;;;;;;13.00;4.70;;;;;;;;;;4239274;33;20441;-73
2023/05/05 04:03:21;;;;;;;10.73;4.90;;;;;;;;;;4235967;33;20699;-83
2023/05/05 04:05:47;;;;;;;10.10;4.87;;;;;;;;;;4220968;34;20043;-73
2023/05/05 04:08:13;;;;;;;7.95;4.37;;;;;;;;;;4222361;34;20055;-76
2023/05/05 04:10:39;;;;;;;7.97;4.12;;;;;;;;;;4222342;34;20101;-73
2023/05/05 04:13:07;;;;;;;10.50;4.80;;;;;;;;;;4222383;33;20453;-75
2023/05/05 04:15:34;;;;;;;11.25;5.07;;;;;;;;;;4221082;33;20046;-76
2023/05/05 04:18:06;;;;;;;11.05;5.43;;;;;;;;;;4217678;33;20480;-75
2023/05/05 04:20:33;;;;;;;13.27;5.50;;;;;;;;;;4233051;33;20129;-74
2023/05/05 04:23:00;;;;;;;8.75;5.28;;;;;;;;;;4236728;33;20093;-73
2023/05/05 04:25:26;;;;;;;14.02;5.03;;;;;;;;;;4248187;33;20038;-82
2023/05/05 04:27:53;;;;;;;9.43;5.25;;;;;;;;;;4250824;33;20079;-75
2023/05/05 04:30:19;;;;;;;12.37;5.22;;;;;;;;;;4244712;33;20061;-73
2023/05/05 04:32:45;;;;;;;13.45;5.05;;;;;;;;;;4234958;33;20179;-74
2023/05/05 04:35:12;;;;;;;14.60;4.70;;;;;;;;;;4239199;33;20456;-74
2023/05/05 04:37:38;;;;;;;10.45;4.85;;;;;;;;;;4271005;33;20081;-80
2023/05/05 04:40:05;;;;;;;13.15;5.22;;;;;;;;;;4266289;33;20056;-75
2023/05/05 04:42:32;;;;;;;21.55;5.32;;;;;;;;;;4264265;33;20079;-74
2023/05/05 04:44:58;;;;;;;13.02;5.07;;;;;;;;;;4275829;33;20045;-75
2023/05/05 04:47:24;;;;;;;28.83;6.40;;;;;;;;;;4276978;33;20058;-75
2023/05/05 04:49:52;;;;;;;6.80;4.53;;;;;;;;;;4261949;33;20037;-80
2023/05/05 04:52:19;;;;;;;8.88;4.97;;;;;;;;;;4263049;33;20046;-75
2023/05/05 04:54:45;;;;;;;10.95;4.75;;;;;;;;;;4253824;33;20412;-76
2023/05/05 04:57:11;;;;;;;8.30;4.60;;;;;;;;;;4253468;33;20061;-76
2023/05/05 04:59:37;;;;;;;12.98;4.93;;;;;;;;;;4264944;33;20445;-73
2023/05/05 05:02:03;;;;;;;9.07;5.05;;;;;;;;;;4258109;33;20592;-73
2023/05/05 05:04:29;;;;;;;14.32;5.60;;;;;;;;;;4246027;33;20159;-74
2023/05/05 05:06:55;;;;;;;17.23;5.40;;;;;;;;;;4251286;33;20066;-75
2023/05/05 05:09:22;;;;;;;18.35;5.18;;;;;;;;;;4258771;33;20038;-73
2023/05/05 05:11:48;;;;;;;9.80;4.75;;;;;;;;;;4253100;33;20476;-72
2023/05/05 05:14:14;;;;;;;20.42;4.45;;;;;;;;;;4233436;33;20038;-80
2023/05/05 05:16:40;;;;;;;13.30;4.80;;;;;;;;;;4235348;33;20137;-72
2023/05/05 05:19:06;;;;;;;16.65;5.93;;;;;;;;;;4234566;33;20118;-74
2023/05/05 05:21:33;;;;;;;10.63;4.95;;;;;;;;;;4234671;33;20510;-71
2023/05/05 05:23:59;;;;;;;14.80;4.90;;;;;;;;;;4236137;33;20064;-71
2023/05/05 05:26:26;;;;;;;13.48;4.97;;;;;;;;;;4234289;33;20069;-71
2023/05/05 05:28:52;;;;;;;14.07;5.65;;;;;;;;;;4239032;33;20431;-71
2023/05/05 05:31:19;;;;;;;25.60;5.20;;;;;;;;;;4245565;33;20458;-71
2023/05/05 05:33:45;;;;;;;14.65;5.50;;;;;;;;;;4262678;33;20040;-71
2023/05/05 05:36:12;;;;;;;15.93;4.90;;;;;;;;;;4265145;33;20120;-71
2023/05/05 05:38:45;;;;;;;9.68;4.45;;;;;;;;;;4263862;33;20084;-69
2023/05/05 05:41:11;;;;;;;10.32;4.10;;;;;;;;;;4261434;33;20061;-71
2023/05/05 05:43:38;;;;;;;15.77;4.90;;;;;;;;;;4268870;33;20531;-70
2023/05/05 05:46:04;;;;;;;15.13;5.10;;;;;;;;;;4295555;33;20086;-71
2023/05/05 05:48:30;;;;;;;17.70;4.35;;;;;;;;;;4296045;33;20116;-79
2023/05/05 05:50:57;;;;;;;7.47;4.28;;;;;;;;;;4297355;33;20064;-71
2023/05/05 05:53:24;;;;;;;10.30;4.30;;;;;;;;;;4301570;33;20451;-73
2023/05/05 05:55:50;;;;;;;16.67;4.32;;;;;;;;;;4302495;33;20049;-72
2023/05/05 05:58:17;;;;;;;11.63;3.40;;;;;;;;;;4299923;33;20454;-71
2023/05/05 06:00:44;;;;;;;9.65;3.75;;;;;;;;;;4309932;33;20070;-71
2023/05/05 06:03:10;;;;;;;5.97;3.97;;;;;;;;;;4309352;33;20085;-72
2023/05/05 06:05:37;;;;;;;12.55;3.85;;;;;;;;;;4310043;33;20056;-71
2023/05/05 06:08:03;;;;;;;10.35;3.83;;;;;;;;;;4300308;33;20091;-73
2023/05/05 06:10:30;;;;;;;7.87;4.72;;;;;;;;;;4305646;33;20517;-72
2023/05/05 06:12:57;;;;;;;4.97;3.95;;;;;;;;;;4284519;33;20052;-76
2023/05/05 06:15:24;;;;;;;8.75;3.62;;;;;;;;;;4278768;33;20096;-73
2023/05/05 06:17:51;;;;;;;10.70;3.40;;;;;;;;;;4274880;33;20141;-71
2023/05/05 06:20:17;;;;;;;12.40;4.18;;;;;;;;;;4275608;33;20076;-72
2023/05/05 06:22:43;;;;;;;9.02;2.90;;;;;;;;;;4277366;33;20256;-71
2023/05/05 06:25:10;;;;;;;6.10;3.35;;;;;;;;;;4274832;33;20232;-75
2023/05/05 06:27:36;;;;;;;7.03;2.95;;;;;;;;;;4275442;33;20186;-72
2023/05/05 06:30:03;;;;;;;14.30;3.72;;;;;;;;;;4277192;33;20055;-71
2023/05/05 06:32:29;;;;;;;10.35;2.75;;;;;;;;;;4275260;33;20063;-70
2023/05/05 06:34:55;;;;;;;15.57;2.83;;;;;;;;;;4274520;33;20103;-71
2023/05/05 06:37:21;;;;;;;15.18;2.92;;;;;;;;;;4274118;33;20443;-72
2023/05/05 06:39:47;;;;;;;6.70;3.22;;;;;;;;;;4271170;33;20069;-72
2023/05/05 06:42:13;;;;;;;11.38;3.58;;;;;;;;;;4270283;33;20296;-71
2023/05/05 06:44:40;;;;;;;12.48;3.28;;;;;;;;;;4270063;33;20091;-71
2023/05/05 06:47:06;;;;;;;11.48;2.83;;;;;;;;;;4289067;33;20083;-73
2023/05/05 06:49:32;;;;;;;5.93;2.85;;;;;;;;;;4294790;33;20457;-78
2023/05/05 06:51:58;;;;;;;12.57;3.00;;;;;;;;;;4287928;33;20108;-71
2023/05/05 06:54:25;;;;;;;5.00;3.55;;;;;;;;;;4305407;33;20074;-70
2023/05/05 06:56:50;;;;;;;4.90;2.90;;;;;;;;;;4298072;33;20065;-74
2023/05/05 06:59:17;;;;;;;5.12;2.95;;;;;;;;;;4301272;33;20489;-71
2023/05/05 07:01:43;;;;;;;8.20;3.05;;;;;;;;;;4296540;33;20060;-75
2023/05/05 07:04:10;;;;;;;8.00;2.37;;;;;;;;;;4294672;33;20098;-79
2023/05/05 07:06:36;;;;;;;3.78;2.20;;;;;;;;;;4303201;33;20060;-70
2023/05/05 07:09:03;;;;;;;9.73;2.92;;;;;;;;;;4306931;33;20048;-70
2023/05/05 07:11:31;;;;;;;6.80;2.75;;;;;;;;;;4304084;33;20049;-71
2023/05/05 07:13:58;;;;;;;5.07;2.47;;;;;;;;;;4302091;33;20057;-76
2023/05/05 07:16:25;;;;;;;3.90;2.42;;;;;;;;;;4301355;33;20071;-74
2023/05/05 07:18:51;;;;;;;6.22;2.72;;;;;;;;;;4303865;33;20060;-71
2023/05/05 07:21:17;;;;;;;10.18;3.05;;;;;;;;;;4304192;33;20375;-73
2023/05/05 07:23:46;;;;;;;5.62;2.55;;;;;;;;;;4302412;33;20415;-72
2023/05/05 07:26:12;;;;;;;2.92;2.55;;;;;;;;;;4278929;33;20408;-73
2023/05/05 07:28:40;;;;;;;3.00;2.08;;;;;;;;;;4273876;33;20944;-71
2023/05/05 07:31:06;;;;;;;5.22;3.28;;;;;;;;;;4275192;33;20094;-75
2023/05/05 07:33:32;;;;;;;11.00;2.65;;;;;;;;;;4277314;33;20122;-73
2023/05/05 07:35:58;;;;;;;10.98;2.03;;;;;;;;;;4280799;33;20464;-73
2023/05/05 07:38:25;;;;;;;8.32;2.70;;;;;;;;;;4280562;33;20053;-72
2023/05/05 07:40:51;;;;;;;5.07;2.17;;;;;;;;;;4278624;33;20499;-74
2023/05/05 07:43:17;;;;;;;3.65;2.22;;;;;;;;;;4270998;33;20510;-74
2023/05/05 07:45:43;;;;;;;1.75;1.65;;;;;;;;;;4275687;33;20056;-72
2023/05/05 07:48:10;;;;;;;4.55;1.45;;;;;;;;;;4278122;33;20084;-77
2023/05/05 07:50:36;;;;;;;2.40;1.58;;;;;;;;;;4276605;33;20385;-73
2023/05/05 07:53:02;;;;;;;3.60;1.75;;;;;;;;;;4283805;33;20291;-73
2023/05/05 07:55:28;;;;;;;2.00;1.90;;;;;;;;;;4283294;33;20454;-73
2023/05/05 07:57:54;;;;;;;5.18;1.55;;;;;;;;;;4279821;33;20053;-73
2023/05/05 08:00:21;;;;;;;5.30;2.20;;;;;;;;;;4288576;33;20929;-73
2023/05/05 08:02:47;;;;;;;5.53;2.47;;;;;;;;;;4281721;33;20052;-82
2023/05/05 08:05:13;;;;;;;7.35;1.95;;;;;;;;;;4291624;33;20766;-74
2023/05/05 08:07:40;;;;;;;8.02;2.80;;;;;;;;;;4301663;33;20411;-73
2023/05/05 08:10:07;;;;;;;2.90;2.40;;;;;;;;;;4300045;33;20049;-72
2023/05/05 08:12:34;;;;;;;4.72;1.98;;;;;;;;;;4298541;33;20076;-72
2023/05/05 08:15:00;;;;;;;2.37;1.83;;;;;;;;;;4297353;33;20092;-73
2023/05/05 08:17:26;;;;;;;2.45;2.25;;;;;;;;;;4302884;33;20116;-73
2023/05/05 08:19:52;;;;;;;5.40;2.22;;;;;;;;;;4296150;33;20040;-75
2023/05/05 08:22:20;;;;;;;4.53;2.25;;;;;;;;;;4300653;33;20049;-72
2023/05/05 08:24:46;;;;;;;5.70;2.37;;;;;;;;;;4298112;33;20033;-80
2023/05/05 08:27:13;;;;;;;4.25;2.60;;;;;;;;;;4293334;33;20075;-71
2023/05/05 08:29:38;;;;;;;3.28;2.40;;;;;;;;;;4310477;33;20423;-73
2023/05/05 08:32:05;;;;;;;3.92;2.67;;;;;;;;;;4307794;33;20905;-72
2023/05/05 08:34:31;;;;;;;5.18;2.60;;;;;;;;;;4307793;33;20070;-76
2023/05/05 08:36:57;;;;;;;2.40;2.20;;;;;;;;;;4315397;33;20081;-80
2023/05/05 08:39:23;;;;;;;5.10;2.58;;;;;;;;;;4302672;33;20082;-74
2023/05/05 08:41:49;;;;;;;5.32;2.33;;;;;;;;;;4286715;33;20448;-72
2023/05/05 08:44:15;;;;;;;4.75;2.78;;;;;;;;;;4291336;33;20222;-72
2023/05/05 08:46:42;;;;;;;5.85;2.60;;;;;;;;;;4285104;33;20049;-73
2023/05/05 08:49:12;;;;;;;2.62;2.08;;;;;;;;;;4277173;33;20553;-74
2023/05/05 08:51:41;;;;;;;4.97;2.97;;;;;;;;;;4278187;33;20061;-73
2023/05/05 08:54:10;;;;;;;4.37;2.53;;;;;;;;;;4284483;33;20079;-74
2023/05/05 08:56:38;;;;;;;3.08;2.53;;;;;;;;;;4280469;33;20053;-73
2023/05/05 08:59:04;;;;;;;6.97;2.97;;;;;;;;;;4285992;33;20070;-73
2023/05/05 09:01:32;;;;;;;10.00;2.97;;;;;;;;;;4272784;33;20577;-72
2023/05/05 09:03:58;;;;;;;4.85;2.70;;;;;;;;;;4283198;33;20455;-76
2023/05/05 09:06:26;;;;;;;6.00;2.25;;;;;;;;;;4279191;33;20095;-74
2023/05/05 09:08:52;;;;;;;10.82;2.83;;;;;;;;;;4280383;33;20053;-73
2023/05/05 09:11:18;;;;;;;5.28;3.35;;;;;;;;;;4281252;33;20058;-75
2023/05/05 09:13:46;;;;;;;4.62;3.08;;;;;;;;;;4296478;33;20128;-74
2023/05/05 09:16:12;;;;;;;6.65;2.80;;;;;;;;;;4287305;33;20399;-74
2023/05/05 09:18:39;;;;;;;11.23;2.70;;;;;;;;;;4292249;33;20060;-73
2023/05/05 09:21:23;;;;;;;7.00;3.62;;;;;;;;;;4292802;33;20058;-75
2023/05/05 09:24:05;;;;;;;13.40;2.85;;;;;;;;;;4289368;33;20573;-75
2023/05/05 09:26:33;;;;;;;9.95;2.53;;;;;;;;;;4295601;33;20056;-79
2023/05/05 09:29:02;;;;;;;11.12;2.90;;;;;;;;;;4297326;33;20466;-74
2023/05/05 09:31:31;;;;;;;5.78;3.05;;;;;;;;;;4284279;33;20550;-74
2023/05/05 09:33:59;;;;;;;14.65;3.33;;;;;;;;;;4284984;33;20026;-73
2023/05/05 09:36:46;;;;;;;6.35;3.08;;;;;;;;;;4283288;33;20706;-74
2023/05/05 09:39:13;;;;;;;13.30;2.47;;;;;;;;;;4281791;33;20053;-74
2023/05/05 09:41:41;;;;;;;6.97;2.80;;;;;;;;;;4276364;33;20111;-73
2023/05/05 09:44:07;;;;;;;14.60;3.12;;;;;;;;;;4280504;33;20516;-74
2023/05/05 09:46:33;;;;;;;9.20;2.72;;;;;;;;;;4277383;33;20177;-79
2023/05/05 09:49:18;;;;;;;7.55;2.50;;;;;;;;;;4280181;33;20357;-74
2023/05/05 09:51:45;;;;;;;5.37;3.08;;;;;;;;;;4275990;33;20391;-74
2023/05/05 09:54:24;;;;;;;10.77;2.87;;;;;;;;;;4272500;33;20058;-75
2023/05/05 09:56:51;;;;;;;3.78;2.60;;;;;;;;;;4270608;33;20046;-74
2023/05/05 09:59:17;;;;;;;14.98;3.62;;;;;;;;;;4284480;33;20074;-74
2023/05/05 10:01:43;;;;;;;7.65;3.42;;;;;;;;;;4285090;33;20075;-76
2023/05/05 10:04:23;;;;;;;5.12;2.78;;;;;;;;;;4292345;33;20155;-73
2023/05/05 10:06:49;;;;;;;5.00;3.22;;;;;;;;;;4298248;33;20126;-73
2023/05/05 10:09:16;;;;;;;7.53;2.78;;;;;;;;;;4285354;33;20057;-72
2023/05/05 10:11:44;;;;;;;12.73;2.90;;;;;;;;;;4290493;33;20398;-76
2023/05/05 10:14:16;;;;;;;7.55;3.35;;;;;;;;;;4301287;33;20041;-74
2023/05/05 10:16:47;;;;;;;10.68;3.17;;;;;;;;;;4291431;33;20063;-77
2023/05/05 10:19:13;;;;;;;11.57;3.28;;;;;;;;;;4302101;33;20457;-74
2023/05/05 10:21:40;;;;;;;11.05;3.15;;;;;;;;;;4305218;33;20049;-73
2023/05/05 10:24:15;;;;;;;8.63;3.35;;;;;;;;;;4302960;33;20040;-73
2023/05/05 10:26:43;;;;;;;5.03;2.72;;;;;;;;;;4285991;33;20111;-74
2023/05/05 10:29:21;;;;;;;8.38;3.05;;;;;;;;;;4300960;33;20052;-74
2023/05/05 10:31:51;;;;;;;9.52;3.17;;;;;;;;;;4304437;33;20067;-74
2023/05/05 10:34:17;;;;;;;9.23;3.35;;;;;;;;;;4273626;33;20050;-73
2023/05/05 10:36:44;;;;;;;4.70;3.08;;;;;;;;;;4271396;33;20059;-75
2023/05/05 10:39:10;;;;;;;9.60;2.85;;;;;;;;;;4273126;33;20101;-74
2023/05/05 10:41:37;;;;;;;6.62;2.78;;;;;;;;;;4268219;33;20072;-74
2023/05/05 10:44:03;;;;;;;11.85;3.08;;;;;;;;;;4273037;33;20038;-72
2023/05/05 10:46:30;;;;;;;4.87;3.17;;;;;;;;;;4268911;33;20383;-74
2023/05/05 10:49:01;;;;;;;5.75;3.58;;;;;;;;;;4266097;33;20133;-74
2023/05/05 10:51:39;;;;;;;10.60;3.67;;;;;;;;;;4273161;33;20071;-76
2023/05/05 10:54:11;;;;;;;12.23;3.35;;;;;;;;;;4265578;33;20094;-72
2023/05/05 10:56:39;;;;;;;14.52;4.82;;;;;;;;;;4237866;33;20385;-77
2023/05/05 10:59:24;;;;;;;13.30;3.53;;;;;;;;;;4241270;33;20054;-72
2023/05/05 11:01:50;;;;;;;11.35;2.78;;;;;;;;;;4387891;28;20097;-72
2023/05/05 11:04:18;;;;;;;16.27;4.28;;;;;;;;;;4249751;33;20081;-74
2023/05/05 11:07:03;;;;;;;5.45;2.90;;;;;;;;;;4247637;33;20447;-72
2023/05/05 11:09:29;;;;;;;9.70;3.00;;;;;;;;;;4247638;33;20435;-74
2023/05/05 11:12:05;;;;;;;8.27;3.10;;;;;;;;;;4244790;33;20732;-74
2023/05/05 11:14:31;;;;;;;4.43;2.53;;;;;;;;;;4261343;33;20059;-74
2023/05/05 11:16:58;;;;;;;5.22;3.05;;;;;;;;;;4260679;33;20105;-75
2023/05/05 11:19:42;;;;;;;5.95;3.55;;;;;;;;;;4263141;33;20157;-72
2023/05/05 11:22:09;;;;;;;7.20;2.95;;;;;;;;;;4257279;33;20495;-74
2023/05/05 11:24:35;;;;;;;6.05;3.83;;;;;;;;;;4248108;33;20663;-74
2023/05/05 11:27:02;;;;;;;5.32;2.72;;;;;;;;;;4252431;33;20058;-74
2023/05/05 11:29:47;;;;;;;14.95;2.90;;;;;;;;;;4262939;33;20068;-73
2023/05/05 11:32:14;;;;;;;4.72;2.87;;;;;;;;;;4261663;33;20062;-80
2023/05/05 11:34:49;;;;;;;8.63;3.50;;;;;;;;;;4263692;33;20077;-74
2023/05/05 11:37:16;;;;;;;6.95;3.00;;;;;;;;;;4262805;33;20053;-73
2023/05/05 11:39:50;;;;;;;7.30;3.28;;;;;;;;;;4263282;33;20033;-74
2023/05/05 11:42:22;;;;;;;7.62;3.28;;;;;;;;;;4259685;33;20092;-74
2023/05/05 11:44:48;;;;;;;5.72;3.05;;;;;;;;;;4262494;33;20067;-73
2023/05/05 11:47:14;;;;;;;14.52;4.32;;;;;;;;;;4262156;33;20185;-75
2023/05/05 11:49:40;;;;;;;3.33;2.70;;;;;;;;;;4263733;33;20457;-75
2023/05/05 11:52:11;;;;;;;6.57;4.35;;;;;;;;;;4259923;33;20064;-74
2023/05/05 11:54:46;;;;;;;7.68;3.17;;;;;;;;;;4263530;33;20607;-73
2023/05/05 11:57:18;;;;;;;7.97;3.62;;;;;;;;;;4260307;33;20384;-74
2023/05/05 12:00:00;;;;;;;9.75;3.60;;;;;;;;;;4265932;33;20028;-75
2023/05/05 12:02:28;;;;;;;8.73;3.90;;;;;;;;;;4279542;33;20104;-73
2023/05/05 12:04:55;;;;;;;8.77;3.87;;;;;;;;;;4280858;33;20209;-72
2023/05/05 12:07:25;;;;;;;13.95;8.73;;;;;;;;;;4280382;33;20076;-73
2023/05/05 12:09:52;;;;;;;8.55;3.72;;;;;;;;;;4278530;33;20050;-79
2023/05/05 12:12:19;;;;;;;4.60;3.85;;;;;;;;;;4285294;33;20486;-73
2023/05/05 12:14:46;;;;;;;4.50;3.30;;;;;;;;;;4285746;33;20408;-73
2023/05/05 12:17:12;;;;;;;3.37;3.10;;;;;;;;;;4286072;33;20061;-74
2023/05/05 12:19:45;;;;;;;5.97;3.12;;;;;;;;;;4285529;33;20075;-74
2023/05/05 12:22:16;;;;;;;7.35;3.40;;;;;;;;;;4263239;33;20072;-76
2023/05/05 12:24:43;;;;;;;11.75;3.92;;;;;;;;;;4267623;33;20057;-75
2023/05/05 12:27:10;;;;;;;7.97;3.78;;;;;;;;;;4253649;33;20045;-73
2023/05/05 12:29:36;;;;;;;6.43;4.12;;;;;;;;;;4255694;33;20038;-73
2023/05/05 12:32:02;;;;;;;5.87;3.65;;;;;;;;;;4249114;33;20041;-77
2023/05/05 12:34:30;;;;;;;7.12;3.67;;;;;;;;;;4254811;33;20055;-72
2023/05/05 12:36:56;;;;;;;7.32;4.62;;;;;;;;;;4255815;33;20056;-73
2023/05/05 12:39:32;;;;;;;17.33;4.70;;;;;;;;;;4251848;33;20967;-73
2023/05/05 12:42:02;;;;;;;6.70;4.75;;;;;;;;;;4248791;33;20054;-76
2023/05/05 12:44:35;;;;;;;8.65;3.75;;;;;;;;;;4249290;33;20073;-74
2023/05/05 12:47:01;;;;;;;7.07;4.18;;;;;;;;;;4212262;34;20050;-74
2023/05/05 12:49:27;;;;;;;8.75;4.03;;;;;;;;;;4193295;34;20044;-72
2023/05/05 12:51:54;;;;;;;5.47;4.00;;;;;;;;;;4166480;34;20074;-73
2023/05/05 12:54:22;;;;;;;5.87;3.60;;;;;;;;;;4178189;34;20040;-72
2023/05/05 12:56:48;;;;;;;7.60;3.78;;;;;;;;;;4182150;34;20067;-73
2023/05/05 12:59:20;;;;;;;5.00;4.25;;;;;;;;;;4181175;34;20127;-72
2023/05/05 13:01:46;;;;;;;;;;;;;;;;;;4194043;34;20085;-72
2023/05/05 13:04:13;;;;;;;9.40;4.35;;;;;;;;;;4185798;34;19943;-79
2023/05/05 13:06:40;;;;;;;7.32;4.15;;;;;;;;;;4193183;34;20081;-73
2023/05/05 13:09:06;;;;;;;8.02;4.05;;;;;;;;;;4194375;34;20039;-73
2023/05/05 13:11:36;;;;;;;7.22;3.08;;;;;;;;;;4195086;34;20069;-74
2023/05/05 13:14:02;;;;;;;3.37;2.53;;;;;;;;;;4193363;34;20081;-79
2023/05/05 13:16:29;;;;;;;10.77;4.53;;;;;;;;;;4192734;34;20462;-75
2023/05/05 13:18:56;;;;;;;4.03;3.12;;;;;;;;;;4198682;34;20077;-74
2023/05/05 13:21:23;;;;;;;18.23;4.18;;;;;;;;;;4220315;33;20073;-73
2023/05/05 13:23:49;;;;;;;7.18;3.33;;;;;;;;;;4245575;33;20069;-74
2023/05/05 13:26:15;;;;;;;8.00;3.10;;;;;;;;;;4251398;33;20073;-75
2023/05/05 13:28:41;;;;;;;5.65;3.00;;;;;;;;;;4249396;33;20066;-77
2023/05/05 13:31:07;;;;;;;10.00;2.90;;;;;;;;;;4237099;33;20084;-73
2023/05/05 13:33:33;;;;;;;8.77;3.20;;;;;;;;;;4236963;33;20047;-74
2023/05/05 13:36:01;;;;;;;5.60;2.78;;;;;;;;;;4235557;33;20072;-73
2023/05/05 13:38:27;;;;;;;5.72;3.10;;;;;;;;;;4242495;33;20339;-74
2023/05/05 13:40:53;;;;;;;6.87;3.00;;;;;;;;;;4235417;33;20768;-78
2023/05/05 13:43:19;;;;;;;10.13;3.65;;;;;;;;;;4236527;33;20050;-72
2023/05/05 13:45:45;;;;;;;9.00;3.25;;;;;;;;;;4241682;33;20776;-71
2023/05/05 13:48:11;;;;;;;10.32;3.42;;;;;;;;;;4238393;33;20050;-75
2023/05/05 13:50:38;;;;;;;5.28;3.00;;;;;;;;;;4244051;33;20090;-72
2023/05/05 13:53:04;;;;;;;6.97;2.78;;;;;;;;;;4252579;33;20073;-74
2023/05/05 13:55:30;;;;;;;8.32;3.30;;;;;;;;;;4248847;33;20053;-72
2023/05/05 13:57:56;;;;;;;13.82;3.37;;;;;;;;;;4253757;33;20089;-72
2023/05/05 14:00:23;;;;;;;9.57;3.10;;;;;;;;;;4264485;33;20221;-72
2023/05/05 14:02:49;;;;;;;4.90;3.35;;;;;;;;;;4262452;33;20046;-73
2023/05/05 14:05:15;;;;;;;8.63;3.45;;;;;;;;;;4235119;33;20060;-74
2023/05/05 14:07:41;;;;;;;21.50;3.85;;;;;;;;;;4219326;33;20046;-72
2023/05/05 14:10:08;;;;;;;5.97;4.72;;;;;;;;;;4222614;33;20054;-72
2023/05/05 14:12:34;;;;;;;5.35;3.33;;;;;;;;;;4180076;34;20197;-72
2023/05/05 14:15:00;;;;;;;4.43;3.80;;;;;;;;;;4180051;34;20048;-71
2023/05/05 14:17:27;;;;;;;9.60;3.45;;;;;;;;;;4165072;34;20036;-77
2023/05/05 14:19:53;;;;;;;5.57;2.62;;;;;;;;;;4167321;34;20060;-74
2023/05/05 14:22:19;;;;;;;3.92;2.05;;;;;;;;;;4161302;34;20432;-72
2023/05/05 14:24:45;;;;;;;10.15;3.03;;;;;;;;;;4154259;34;20060;-73
2023/05/05 14:27:11;;;;;;;5.22;3.05;;;;;;;;;;4160635;34;20044;-73
2023/05/05 14:29:37;;;;;;;7.85;2.92;;;;;;;;;;4158675;34;20371;-77
2023/05/05 14:32:03;;;;;;;4.60;3.20;;;;;;;;;;4163677;34;20060;-74
2023/05/05 14:34:30;;;;;;;7.15;3.00;;;;;;;;;;4163970;34;20114;-73
2023/05/05 14:36:56;;;;;;;8.05;3.05;;;;;;;;;;4186617;34;20181;-73
2023/05/05 14:39:22;;;;;;;6.70;2.50;;;;;;;;;;4212991;34;20065;-74
2023/05/05 14:41:48;;;;;;;9.45;2.62;;;;;;;;;;4220276;34;20501;-77
2023/05/05 14:44:15;;;;;;;9.63;2.37;;;;;;;;;;4242021;33;20042;-73
2023/05/05 14:46:41;;;;;;;12.63;2.67;;;;;;;;;;4260934;33;20295;-73
2023/05/05 14:49:07;;;;;;;2.33;2.10;;;;;;;;;;4263241;33;20522;-73
2023/05/05 14:51:33;;;;;;;5.70;2.10;;;;;;;;;;4264828;33;20037;-72
2023/05/05 14:53:59;;;;;;;6.53;2.78;;;;;;;;;;4239923;33;20132;-73
2023/05/05 14:56:25;;;;;;;5.35;2.15;;;;;;;;;;4240143;33;20050;-74
2023/05/05 14:58:51;;;;;;;5.18;2.22;;;;;;;;;;4240869;33;20201;-73
2023/05/05 15:01:19;;;;;;;11.40;2.55;;;;;;;;;;4239584;33;20047;-73
2023/05/05 15:03:45;;;;;;;11.57;2.53;;;;;;;;;;4237296;33;20046;-74
2023/05/05 15:06:11;;;;;;;8.68;2.08;;;;;;;;;;4239528;33;20416;-75
2023/05/05 15:08:38;;;;;;;4.95;1.87;;;;;;;;;;4239127;33;20056;-73
2023/05/05 15:11:05;;;;;;;10.45;2.75;;;;;;;;;;4242180;33;20059;-72
2023/05/05 15:13:31;;;;;;;6.43;2.75;;;;;;;;;;4248153;33;20080;-74
2023/05/05 15:15:57;;;;;;;10.10;2.15;;;;;;;;;;4251286;33;20420;-72
2023/05/05 15:18:24;;;;;;;6.50;2.70;;;;;;;;;;4247690;33;20055;-71
2023/05/05 15:20:49;;;;;;;2.83;2.42;;;;;;;;;;4249966;33;20126;-73
2023/05/05 15:23:16;;;;;;;2.72;2.20;;;;;;;;;;4250947;33;20075;-74
2023/05/05 15:25:42;;;;;;;8.77;2.78;;;;;;;;;;4248475;33;20057;-75
2023/05/05 15:28:08;;;;;;;4.82;2.55;;;;;;;;;;4235037;33;20145;-74
2023/05/05 15:30:34;;;;;;;6.60;2.03;;;;;;;;;;4237367;33;20690;-74
2023/05/05 15:33:00;;;;;;;19.62;2.28;;;;;;;;;;4232553;33;20188;-72
2023/05/05 15:35:26;;;;;;;11.45;2.58;;;;;;;;;;4236344;33;20064;-73
2023/05/05 15:37:53;;;;;;;9.15;2.35;;;;;;;;;;4239552;33;20113;-73
2023/05/05 15:40:19;;;;;;;6.05;2.50;;;;;;;;;;4234146;33;20035;-78
2023/05/05 15:42:46;;;;;;;13.23;2.92;;;;;;;;;;4237405;33;20448;-73
2023/05/05 15:45:13;;;;;;;4.53;2.62;;;;;;;;;;4239463;33;20055;-73
2023/05/05 15:47:39;;;;;;;7.07;2.15;;;;;;;;;;4219452;34;20069;-72
2023/05/05 15:50:06;;;;;;;10.85;2.70;;;;;;;;;;4221708;34;20066;-72
2023/05/05 15:52:33;;;;;;;7.12;1.95;;;;;;;;;;4219207;33;20080;-73
2023/05/05 15:54:59;;;;;;;5.55;3.10;;;;;;;;;;4229835;33;20169;-75
2023/05/05 15:57:25;;;;;;;10.18;3.00;;;;;;;;;;4238028;33;20067;-72
2023/05/05 15:59:52;;;;;;;5.70;2.67;;;;;;;;;;4245762;33;20064;-71
2023/05/05 16:02:18;;;;;;;6.47;2.40;;;;;;;;;;4254533;33;20248;-78
2023/05/05 16:04:45;;;;;;;5.95;2.60;;;;;;;;;;4266351;33;20037;-79
2023/05/05 16:07:11;;;;;;;10.25;1.85;;;;;;;;;;4263370;33;20061;-77
2023/05/05 16:09:37;;;;;;;7.85;2.35;;;;;;;;;;4264347;33;20025;-72
2023/05/05 16:12:04;;;;;;;3.62;2.17;;;;;;;;;;4249083;33;20038;-74
2023/05/05 16:14:32;;;;;;;4.85;2.25;;;;;;;;;;4248233;33;20046;-82
2023/05/05 16:16:58;;;;;;;3.78;2.20;;;;;;;;;;4237071;33;20136;-73
2023/05/05 16:19:26;;;;;;;14.60;2.22;;;;;;;;;;4261506;33;20072;-79
2023/05/05 16:21:52;;;;;;;6.72;2.70;;;;;;;;;;4260272;33;20178;-76
2023/05/05 16:24:18;;;;;;;3.58;1.90;;;;;;;;;;4262927;33;20513;-75
2023/05/05 16:26:45;;;;;;;15.10;2.72;;;;;;;;;;4260786;33;20053;-73
2023/05/05 16:29:11;;;;;;;10.45;2.12;;;;;;;;;;4263299;33;20334;-74
2023/05/05 16:31:37;;;;;;;6.50;2.40;;;;;;;;;;4262469;33;20194;-74
2023/05/05 16:34:03;;;;;;;3.67;2.55;;;;;;;;;;4263617;33;20041;-75
2023/05/05 16:36:30;;;;;;;7.70;2.20;;;;;;;;;;4265722;33;20394;-72
2023/05/05 16:38:56;;;;;;;8.10;2.33;;;;;;;;;;4260867;33;20352;-79
2023/05/05 16:41:22;;;;;;;11.02;2.80;;;;;;;;;;4261461;33;20063;-76